createdAt,value
2019-04-03T00:00:14.340Z,88.11
2019-04-03T00:02:43.066Z,88.80
2019-04-03T00:05:12.012Z,89.31
2019-04-03T00:07:40.676Z,89.26
2019-04-03T00:10:09.465Z,89.59
2019-04-03T00:12:40.470Z,89.09
2019-04-03T00:15:09.303Z,88.87
2019-04-03T00:17:37.965Z,88.96
2019-04-03T00:20:07.586Z,88.67
2019-04-03T00:22:37.522Z,88.28
2019-04-03T00:25:06.753Z,88.46
2019-04-03T00:27:35.433Z,88.73
2019-04-03T00:30:05.152Z,88.79
2019-04-03T00:32:33.819Z,89.10
2019-04-03T00:35:02.656Z,88.63
2019-04-03T00:37:31.231Z,87.62
2019-04-03T00:39:59.888Z,85.07
2019-04-03T00:42:28.605Z,83.40
2019-04-03T00:44:57.255Z,81.92
2019-04-03T00:47:26.059Z,80.79
2019-04-03T00:49:56.112Z,80.84
2019-04-03T00:52:27.209Z,81.11
2019-04-03T00:54:56.511Z,81.78
2019-04-03T00:57:26.409Z,82.44
2019-04-03T00:59:56.488Z,83.47
2019-04-03T01:02:27.848Z,83.05
2019-04-03T01:04:57.982Z,83.22
2019-04-03T01:07:27.542Z,83.55
2019-04-03T01:09:59.080Z,84.80
2019-04-03T01:12:27.379Z,85.49
2019-04-03T01:14:56.075Z,85.93
2019-04-03T01:17:24.726Z,86.52
2019-04-03T01:19:53.547Z,86.90
2019-04-03T01:22:22.220Z,87.26
2019-04-03T01:24:50.882Z,87.63
2019-04-03T01:27:25.018Z,87.76
2019-04-03T01:29:54.022Z,88.17
2019-04-03T01:32:22.803Z,88.47
2019-04-03T01:34:51.466Z,88.65
2019-04-03T01:37:20.141Z,88.69
2019-04-03T01:39:50.739Z,88.66
2019-04-03T01:42:21.500Z,88.52
2019-04-03T01:44:49.699Z,87.94
2019-04-03T01:47:18.431Z,87.58
2019-04-03T01:49:47.228Z,87.47
2019-04-03T01:52:15.863Z,87.28
2019-04-03T01:54:44.520Z,87.53
2019-04-03T01:57:13.484Z,87.72
2019-04-03T01:59:42.174Z,88.29
2019-04-03T02:02:10.841Z,88.71
2019-04-03T02:04:42.019Z,89.13
2019-04-03T02:07:10.252Z,89.01
2019-04-03T02:09:38.916Z,88.30
2019-04-03T02:12:07.568Z,87.57
2019-04-03T02:14:36.255Z,87.42
2019-04-03T02:17:05.112Z,87.15
2019-04-03T02:19:33.765Z,87.67
2019-04-03T02:22:02.430Z,88.66
2019-04-03T02:24:31.963Z,88.71
2019-04-03T02:27:02.753Z,88.96
2019-04-03T02:29:32.119Z,89.90
2019-04-03T02:32:00.801Z,90.29
2019-04-03T02:34:33.965Z,90.98
2019-04-03T02:37:00.737Z,90.83
2019-04-03T02:39:29.665Z,90.12
2019-04-03T02:41:58.815Z,90.86
2019-04-03T02:44:27.456Z,91.12
2019-04-03T02:46:59.536Z,90.91
2019-04-03T02:49:26.600Z,90.89
2019-04-03T02:51:55.713Z,91.12
2019-04-03T02:54:29.081Z,91.10
2019-04-03T02:56:58.425Z,91.19
2019-04-03T02:59:27.099Z,91.24
2019-04-03T03:01:56.197Z,91.28
2019-04-03T03:04:26.345Z,91.56
2019-04-03T03:06:55.069Z,91.85
2019-04-03T03:09:23.893Z,91.89
2019-04-03T03:11:55.991Z,91.73
2019-04-03T03:14:24.040Z,91.66
2019-04-03T03:16:53.332Z,91.80
2019-04-03T03:19:23.424Z,91.53
2019-04-03T03:21:55.364Z,92.31
2019-04-03T03:24:28.490Z,92.47
2019-04-03T03:26:56.005Z,92.68
2019-04-03T03:29:27.191Z,92.50
2019-04-03T03:32:09.224Z,92.71
2019-04-03T03:34:48.197Z,92.76
2019-04-03T03:37:02.214Z,92.82
2019-04-03T03:39:29.595Z,92.74
2019-04-03T03:41:59.145Z,92.63
2019-04-03T03:44:28.474Z,92.82
2019-04-03T03:47:01.055Z,92.68
2019-04-03T03:49:30.212Z,92.60
2019-04-03T03:52:02.594Z,92.76
2019-04-03T03:54:30.898Z,92.57
2019-04-03T03:57:04.279Z,92.91
2019-04-03T03:59:31.760Z,93.02
2019-04-03T04:02:03.451Z,93.06
2019-04-03T04:04:31.039Z,92.91
2019-04-03T04:07:02.688Z,92.90
2019-04-03T04:09:31.023Z,93.04
2019-04-03T04:12:04.500Z,93.55
2019-04-03T04:14:30.896Z,93.40
2019-04-03T04:17:00.233Z,93.44
2019-04-03T04:19:30.846Z,93.31
2019-04-03T04:22:01.009Z,93.40
2019-04-03T04:24:29.781Z,93.54
2019-04-03T04:26:59.015Z,93.65
2019-04-03T04:29:27.681Z,93.75
2019-04-03T04:31:56.395Z,93.55
2019-04-03T04:34:25.054Z,93.56
2019-04-03T04:36:55.322Z,93.63
2019-04-03T04:39:24.341Z,93.45
2019-04-03T04:41:53.009Z,93.41
2019-04-03T04:44:21.681Z,93.29
2019-04-03T04:46:50.432Z,93.11
2019-04-03T04:49:19.088Z,93.09
2019-04-03T04:51:47.821Z,93.01
2019-04-03T04:54:17.737Z,92.98
2019-04-03T04:56:46.443Z,93.08
2019-04-03T04:59:15.107Z,93.22
2019-04-03T05:01:43.775Z,93.06
2019-04-03T05:04:15.044Z,92.91
2019-04-03T05:06:42.989Z,92.90
2019-04-03T05:09:11.608Z,93.10
2019-04-03T05:11:40.296Z,93.25
2019-04-03T05:14:09.059Z,93.30
2019-04-03T05:16:37.781Z,93.24
2019-04-03T05:19:10.221Z,93.16
2019-04-03T05:21:36.936Z,92.93
2019-04-03T05:24:12.634Z,92.95
2019-04-03T05:26:36.315Z,92.99
2019-04-03T05:29:05.099Z,92.69
2019-04-03T05:31:33.760Z,92.70
2019-04-03T05:34:02.451Z,92.74
2019-04-03T05:36:31.214Z,92.56
2019-04-03T05:39:02.582Z,92.59
2019-04-03T05:41:30.412Z,92.30
2019-04-03T05:44:00.095Z,92.60
2019-04-03T05:46:30.113Z,92.96
2019-04-03T05:48:59.066Z,93.10
2019-04-03T05:51:29.965Z,92.34
2019-04-03T05:53:58.457Z,91.89
2019-04-03T05:56:27.267Z,90.88
2019-04-03T05:59:00.379Z,91.02
2019-04-03T06:01:26.956Z,89.84
2019-04-03T06:03:55.683Z,89.21
2019-04-03T06:06:24.374Z,89.43
2019-04-03T06:08:56.225Z,88.56
2019-04-03T06:11:23.428Z,89.18
2019-04-03T06:13:52.398Z,87.95
2019-04-03T06:16:23.422Z,88.11
2019-04-03T06:18:52.082Z,87.62
2019-04-03T06:21:21.182Z,87.02
2019-04-03T06:23:50.917Z,84.96
2019-04-03T06:26:20.838Z,83.19
2019-04-03T06:28:49.613Z,82.10
2019-04-03T06:31:18.279Z,81.35
2019-04-03T06:33:47.349Z,81.57
2019-04-03T06:36:17.190Z,80.94
2019-04-03T06:38:46.694Z,80.09
2019-04-03T06:41:15.705Z,80.27
2019-04-03T06:43:45.083Z,80.07
2019-04-03T06:46:14.092Z,80.27
2019-04-03T06:48:43.902Z,79.04
2019-04-03T06:51:14.004Z,80.42
2019-04-03T06:53:42.972Z,80.26
2019-04-03T06:56:11.651Z,79.56
2019-04-03T06:58:41.849Z,77.74
2019-04-03T07:01:10.865Z,76.26
2019-04-03T07:03:39.494Z,76.01
2019-04-03T07:06:08.263Z,76.26
2019-04-03T07:08:40.110Z,74.80
2019-04-03T07:11:07.644Z,74.27
2019-04-03T07:13:36.347Z,71.75
2019-04-03T07:16:06.078Z,70.74
2019-04-03T07:18:37.033Z,69.31
2019-04-03T07:21:05.231Z,69.10
2019-04-03T07:23:33.899Z,69.51
2019-04-03T07:26:02.942Z,68.84
2019-04-03T07:28:33.141Z,67.09
2019-04-03T07:31:02.037Z,66.50
2019-04-03T07:33:30.847Z,63.99
2019-04-03T07:35:59.896Z,61.46
2019-04-03T07:38:28.873Z,59.21
2019-04-03T07:40:57.694Z,57.32
2019-04-03T07:43:27.565Z,55.99
2019-04-03T07:45:56.604Z,54.67
2019-04-03T07:48:25.297Z,53.11
2019-04-03T07:50:54.023Z,53.26
2019-04-03T07:53:23.068Z,50.77
2019-04-03T07:55:51.946Z,51.57
2019-04-03T07:58:20.952Z,51.38
2019-04-03T08:00:49.607Z,50.49
2019-04-03T08:03:20.011Z,50.47
2019-04-03T08:05:48.655Z,51.54
2019-04-03T08:08:17.336Z,52.29
2019-04-03T08:10:45.997Z,52.35
2019-04-03T08:13:15.027Z,53.37
2019-04-03T08:15:44.432Z,52.50
2019-04-03T08:18:14.641Z,51.98
2019-04-03T08:20:43.329Z,50.82
2019-04-03T08:23:12.036Z,51.15
2019-04-03T08:25:42.346Z,51.40
2019-04-03T08:28:11.114Z,51.52
2019-04-03T08:30:40.595Z,51.04
2019-04-03T08:33:15.897Z,51.00
2019-04-03T08:35:40.590Z,50.98
2019-04-03T08:38:10.924Z,51.19
2019-04-03T08:40:39.695Z,51.12
2019-04-03T08:43:08.598Z,52.09
2019-04-03T08:45:38.415Z,51.39
2019-04-03T08:48:08.065Z,50.11
2019-04-03T08:50:37.201Z,49.92
2019-04-03T08:53:08.344Z,50.18
2019-04-03T08:55:36.294Z,50.85
2019-04-03T08:58:05.057Z,51.44
2019-04-03T09:00:33.895Z,51.63
2019-04-03T09:03:04.057Z,51.01
2019-04-03T09:05:33.089Z,50.68
2019-04-03T09:08:01.997Z,51.04
2019-04-03T09:10:32.173Z,50.74
2019-04-03T09:13:01.209Z,51.10
2019-04-03T09:15:30.226Z,51.92
2019-04-03T09:17:59.012Z,52.04
2019-04-03T09:20:27.820Z,51.61
2019-04-03T09:22:56.493Z,51.95
2019-04-03T09:25:25.162Z,51.63
2019-04-03T09:27:53.864Z,51.75
2019-04-03T09:30:23.172Z,52.74
2019-04-03T09:32:53.997Z,51.76
2019-04-03T09:35:22.402Z,49.39
2019-04-03T09:37:51.103Z,48.29
2019-04-03T09:40:19.831Z,49.75
2019-04-03T09:42:51.240Z,48.89
2019-04-03T09:45:19.289Z,49.67
2019-04-03T09:47:48.295Z,50.01
2019-04-03T09:50:17.505Z,50.03
2019-04-03T09:52:49.449Z,50.81
2019-04-03T09:55:16.929Z,51.10
2019-04-03T09:57:45.607Z,50.15
2019-04-03T10:00:14.902Z,50.64
2019-04-03T10:02:44.301Z,50.64
2019-04-03T10:05:15.277Z,51.58
2019-04-03T10:07:44.240Z,51.02
2019-04-03T10:10:14.004Z,50.28
2019-04-03T10:12:47.312Z,50.02
2019-04-03T10:15:18.076Z,50.45
2019-04-03T10:17:46.114Z,50.84
2019-04-03T10:20:17.248Z,51.07
2019-04-03T10:22:47.006Z,50.88
2019-04-03T10:25:16.239Z,51.73
2019-04-03T10:27:44.866Z,52.08
2019-04-03T10:30:16.682Z,50.71
2019-04-03T10:32:46.063Z,48.44
2019-04-03T10:35:16.769Z,45.72
2019-04-03T10:37:47.048Z,45.80
2019-04-03T10:40:16.378Z,45.64
2019-04-03T10:42:46.088Z,45.03
2019-04-03T10:45:16.401Z,44.77
2019-04-03T10:47:45.717Z,45.98
2019-04-03T10:50:15.381Z,46.20
2019-04-03T10:52:47.687Z,46.11
2019-04-03T10:55:15.981Z,45.07
2019-04-03T10:57:45.022Z,44.64
2019-04-03T11:00:15.515Z,45.56
2019-04-03T11:02:44.304Z,45.40
2019-04-03T11:05:13.549Z,44.31
2019-04-03T11:07:42.690Z,43.88
2019-04-03T11:10:11.972Z,42.99
2019-04-03T11:12:40.648Z,44.46
2019-04-03T11:15:11.523Z,43.93
2019-04-03T11:17:40.590Z,44.94
2019-04-03T11:20:10.862Z,45.88
2019-04-03T11:22:42.155Z,44.30
2019-04-03T11:25:13.958Z,44.90
2019-04-03T11:27:43.361Z,42.09
2019-04-03T11:30:17.352Z,41.90
2019-04-03T11:32:43.053Z,42.02
2019-04-03T11:35:12.005Z,43.09
2019-04-03T11:37:40.761Z,43.39
2019-04-03T11:40:10.569Z,44.38
2019-04-03T11:42:39.325Z,44.34
2019-04-03T11:45:09.058Z,45.07
2019-04-03T11:47:39.155Z,46.21
2019-04-03T11:50:08.823Z,47.13
2019-04-03T11:52:37.823Z,46.90
2019-04-03T11:55:10.092Z,45.68
2019-04-03T11:57:38.439Z,45.44
2019-04-03T12:00:11.969Z,45.98
2019-04-03T12:02:44.020Z,46.18
2019-04-03T12:05:13.174Z,46.49
2019-04-03T12:07:44.470Z,46.10
2019-04-03T12:10:13.535Z,46.99
2019-04-03T12:12:42.860Z,47.00
2019-04-03T12:15:15.085Z,47.13
2019-04-03T12:17:42.600Z,46.73
2019-04-03T12:20:14.970Z,47.81
2019-04-03T12:22:44.477Z,49.66
2019-04-03T12:25:14.218Z,49.15
2019-04-03T12:27:44.927Z,49.08
2019-04-03T12:30:14.050Z,49.31
2019-04-03T12:32:47.964Z,49.24
2019-04-03T12:35:13.992Z,49.44
2019-04-03T12:37:42.992Z,49.67
2019-04-03T12:40:12.590Z,49.73
2019-04-03T12:42:41.321Z,50.32
2019-04-03T12:45:10.945Z,54.38
2019-04-03T12:47:43.125Z,61.96
2019-04-03T12:50:12.243Z,64.69
2019-04-03T12:52:43.366Z,67.54
2019-04-03T12:55:11.433Z,70.50
2019-04-03T12:57:40.381Z,74.29
2019-04-03T13:00:12.710Z,76.46
2019-04-03T13:02:42.465Z,77.02
2019-04-03T13:05:12.091Z,77.89
2019-04-03T13:07:40.849Z,78.92
2019-04-03T13:10:10.433Z,78.96
2019-04-03T13:12:39.565Z,79.58
2019-04-03T13:15:10.418Z,79.94
2019-04-03T13:17:39.333Z,78.82
2019-04-03T13:20:08.504Z,78.61
2019-04-03T13:22:37.833Z,77.72
2019-04-03T13:25:10.200Z,78.44
2019-04-03T13:27:38.862Z,78.66
2019-04-03T13:30:12.400Z,79.17
2019-04-03T13:32:40.119Z,78.59
2019-04-03T13:35:09.545Z,78.67
2019-04-03T13:37:39.752Z,78.64
2019-04-03T13:40:09.704Z,77.88
2019-04-03T13:42:38.667Z,77.29
2019-04-03T13:45:09.364Z,76.23
2019-04-03T13:47:41.610Z,76.03
2019-04-03T13:50:11.236Z,76.81
2019-04-03T13:52:43.541Z,76.37
2019-04-03T13:55:12.242Z,78.57
2019-04-03T13:57:41.537Z,81.03
2019-04-03T14:00:19.860Z,80.67
2019-04-03T14:02:44.869Z,80.38
2019-04-03T14:05:13.596Z,81.75
2019-04-03T14:07:42.699Z,82.32
2019-04-03T14:10:12.349Z,81.48
2019-04-03T14:12:44.244Z,80.97
2019-04-03T14:15:12.631Z,80.83
2019-04-03T14:17:54.633Z,81.64
2019-04-03T14:20:14.265Z,80.09
2019-04-03T14:22:44.101Z,78.84
2019-04-03T14:25:21.002Z,79.63
2019-04-03T14:27:44.445Z,79.64
2019-04-03T14:30:13.451Z,75.01
2019-04-03T14:32:44.960Z,66.41
2019-04-03T14:35:40.498Z,63.13
2019-04-03T14:37:43.102Z,58.32
2019-04-03T14:40:13.057Z,49.87
2019-04-03T14:42:42.286Z,46.45
2019-04-03T14:45:14.594Z,41.52
2019-04-03T14:47:41.894Z,39.45
2019-04-03T14:50:11.251Z,37.65
2019-04-03T14:52:39.885Z,37.59
2019-04-03T14:55:18.133Z,41.26
2019-04-03T14:57:40.297Z,47.79
2019-04-03T15:00:22.974Z,48.29
2019-04-03T15:02:41.010Z,53.19
2019-04-03T15:05:10.812Z,56.29
2019-04-03T15:07:40.407Z,55.27
2019-04-03T15:10:10.786Z,50.80
2019-04-03T15:12:40.273Z,45.75
2019-04-03T15:15:10.329Z,41.65
2019-04-03T15:17:39.404Z,38.13
2019-04-03T15:20:10.407Z,37.03
2019-04-03T15:22:40.358Z,34.94
2019-04-03T15:25:10.104Z,35.60
2019-04-03T15:27:39.206Z,35.65
2019-04-03T15:30:12.056Z,38.67
2019-04-03T15:32:41.709Z,43.92
2019-04-03T15:35:10.525Z,51.78
2019-04-03T15:37:41.494Z,53.16
2019-04-03T15:40:10.625Z,56.92
2019-04-03T15:42:41.243Z,57.95
2019-04-03T15:45:11.757Z,58.77
2019-04-03T15:47:45.011Z,57.11
2019-04-03T15:50:12.090Z,54.46
2019-04-03T15:52:43.463Z,52.86
2019-04-03T15:55:13.012Z,52.12
2019-04-03T15:57:41.671Z,51.63
2019-04-03T16:00:12.453Z,53.00
2019-04-03T16:02:44.373Z,55.59
2019-04-03T16:05:12.319Z,56.71
2019-04-03T16:07:42.436Z,56.79
2019-04-03T16:10:12.334Z,57.37
2019-04-03T16:12:43.448Z,57.26
2019-04-03T16:15:13.863Z,59.05
2019-04-03T16:17:43.166Z,59.43
2019-04-03T16:20:16.017Z,61.52
2019-04-03T16:22:43.983Z,61.76
2019-04-03T16:25:15.549Z,61.51
2019-04-03T16:27:44.385Z,60.21
2019-04-03T16:30:15.319Z,59.72
2019-04-03T16:32:45.209Z,58.93
2019-04-03T16:35:14.781Z,58.50
2019-04-03T16:37:45.234Z,59.77
2019-04-03T16:40:14.899Z,59.86
2019-04-03T16:42:47.479Z,60.93
2019-04-03T16:45:15.086Z,62.86
2019-04-03T16:47:45.232Z,64.67
2019-04-03T16:50:15.418Z,67.86
2019-04-03T16:52:46.785Z,70.75
2019-04-03T16:55:15.879Z,70.95
2019-04-03T16:57:46.041Z,72.42
2019-04-03T17:00:15.583Z,73.24
2019-04-03T17:02:44.873Z,73.28
2019-04-03T17:05:14.055Z,73.25
2019-04-03T17:07:42.831Z,74.87
2019-04-03T17:10:12.270Z,75.25
2019-04-03T17:12:41.742Z,77.80
2019-04-03T17:15:11.901Z,77.74
2019-04-03T17:17:41.161Z,78.08
2019-04-03T17:20:10.602Z,78.74
2019-04-03T17:22:41.169Z,78.72
2019-04-03T17:25:10.685Z,79.37
2019-04-03T17:27:39.660Z,79.11
2019-04-03T17:30:10.347Z,79.41
2019-04-03T17:32:40.048Z,79.35
2019-04-03T17:35:09.964Z,79.79
2019-04-03T17:37:38.740Z,79.63
2019-04-03T17:40:10.277Z,79.12
2019-04-03T17:42:40.235Z,79.76
2019-04-03T17:45:09.926Z,80.11
2019-04-03T17:47:38.604Z,80.51
2019-04-03T17:50:08.773Z,81.28
2019-04-03T17:52:38.216Z,81.14
2019-04-03T17:55:10.056Z,81.46
2019-04-03T17:57:50.944Z,80.47
2019-04-03T18:00:21.963Z,79.86
2019-04-03T18:02:51.350Z,80.27
2019-04-03T18:05:20.221Z,80.45
2019-04-03T18:07:49.658Z,80.48
2019-04-03T18:10:18.817Z,80.29
2019-04-03T18:12:47.482Z,80.15
2019-04-03T18:15:17.959Z,79.87
2019-04-03T18:17:46.644Z,80.12
2019-04-03T18:20:15.605Z,80.07
2019-04-03T18:22:44.276Z,80.35
2019-04-03T18:25:13.308Z,80.55
2019-04-03T18:27:41.976Z,80.70
2019-04-03T18:30:12.698Z,80.83
2019-04-03T18:32:41.420Z,80.86
2019-04-03T18:35:10.924Z,80.90
2019-04-03T18:37:41.160Z,80.57
2019-04-03T18:40:14.102Z,80.77
2019-04-03T18:42:41.298Z,80.55
2019-04-03T18:45:24.163Z,80.88
2019-04-03T18:47:43.926Z,80.52
2019-04-03T18:50:12.369Z,81.16
2019-04-03T18:52:41.072Z,81.96
2019-04-03T18:55:09.919Z,82.18
2019-04-03T18:57:38.901Z,82.45
2019-04-03T19:00:09.213Z,82.84
2019-04-03T19:02:38.054Z,81.93
2019-04-03T19:05:10.037Z,81.36
2019-04-03T19:07:38.720Z,80.02
2019-04-03T19:10:08.385Z,79.92
2019-04-03T19:12:37.115Z,79.33
2019-04-03T19:15:07.011Z,79.32
2019-04-03T19:17:35.735Z,79.48
2019-04-03T19:20:10.671Z,80.20
2019-04-03T19:22:36.405Z,80.69
2019-04-03T19:25:05.974Z,80.45
2019-04-03T19:27:34.655Z,78.66
2019-04-03T19:30:06.789Z,79.74
2019-04-03T19:32:34.241Z,80.38
2019-04-03T19:35:03.289Z,80.66
2019-04-03T19:37:34.149Z,81.08
2019-04-03T19:40:02.341Z,81.50
2019-04-03T19:42:31.047Z,82.98
2019-04-03T19:44:59.708Z,83.74
2019-04-03T19:47:28.370Z,84.50
2019-04-03T19:50:00.022Z,85.02
2019-04-03T19:52:27.466Z,84.89
2019-04-03T19:54:56.125Z,85.28
2019-04-03T19:57:24.955Z,85.22
2019-04-03T19:59:55.343Z,85.56
2019-04-03T20:02:23.997Z,85.27
2019-04-03T20:04:52.683Z,85.30
2019-04-03T20:07:21.342Z,85.56
2019-04-03T20:09:50.000Z,86.25
2019-04-03T20:12:19.100Z,86.80
2019-04-03T20:14:58.126Z,87.65
2019-04-03T20:17:18.493Z,87.60
2019-04-03T20:19:47.213Z,83.63
2019-04-03T20:22:15.888Z,81.85
2019-04-03T20:24:44.934Z,85.49
2019-04-03T20:27:14.892Z,86.14
2019-04-03T20:29:44.384Z,86.19
2019-04-03T20:32:13.353Z,85.31
2019-04-03T20:34:44.481Z,85.07
2019-04-03T20:37:12.762Z,86.17
2019-04-03T20:39:41.447Z,85.67
2019-04-03T20:42:10.453Z,86.96
2019-04-03T20:44:39.300Z,87.73
2019-04-03T20:47:08.234Z,86.58
2019-04-03T20:49:36.921Z,87.29
2019-04-03T20:52:06.436Z,88.33
2019-04-03T20:54:36.728Z,88.42
2019-04-03T20:57:06.101Z,88.15
2019-04-03T20:59:35.922Z,88.26
2019-04-03T21:02:08.011Z,88.70
2019-04-03T21:04:36.203Z,87.87
2019-04-03T21:07:05.936Z,87.84
2019-04-03T21:09:35.320Z,88.86
2019-04-03T21:12:05.649Z,89.46
2019-04-03T21:14:35.357Z,89.38
2019-04-03T21:17:05.275Z,89.37
2019-04-03T21:19:34.722Z,89.53
2019-04-03T21:22:04.428Z,89.63
2019-04-03T21:24:34.905Z,89.78
2019-04-03T21:27:03.713Z,89.21
2019-04-03T21:29:33.349Z,88.91
2019-04-03T21:32:02.272Z,89.10
2019-04-03T21:34:32.807Z,89.61
2019-04-03T21:37:02.939Z,90.04
2019-04-03T21:39:33.747Z,90.12
2019-04-03T21:42:02.654Z,90.62
2019-04-03T21:44:32.518Z,90.94
2019-04-03T21:47:01.485Z,90.75
2019-04-03T21:49:30.757Z,90.71
2019-04-03T21:51:59.693Z,91.22
2019-04-03T21:54:29.210Z,91.32
2019-04-03T21:56:59.468Z,91.52
2019-04-03T21:59:28.698Z,91.56
2019-04-03T22:01:58.735Z,90.88
2019-04-03T22:04:27.997Z,91.70
2019-04-03T22:06:57.855Z,91.76
2019-04-03T22:09:28.811Z,91.02
2019-04-03T22:11:58.528Z,91.18
2019-04-03T22:14:27.475Z,91.08
2019-04-03T22:16:56.505Z,91.32
2019-04-03T22:19:27.607Z,90.90
2019-04-03T22:21:57.225Z,90.45
2019-04-03T22:24:26.742Z,90.54
2019-04-03T22:26:55.750Z,90.51
2019-04-03T22:29:24.696Z,91.01
2019-04-03T22:31:54.550Z,90.74
2019-04-03T22:34:24.107Z,91.17
2019-04-03T22:36:53.553Z,91.53
2019-04-03T22:39:22.814Z,91.40
2019-04-03T22:41:52.037Z,91.65
2019-04-03T22:44:21.456Z,91.29
2019-04-03T22:46:52.049Z,91.40
2019-04-03T22:49:22.175Z,91.65
2019-04-03T22:51:51.488Z,91.63
2019-04-03T22:54:20.756Z,91.54
2019-04-03T22:56:50.245Z,91.93
2019-04-03T22:59:19.951Z,91.70
2019-04-03T23:01:49.667Z,91.64
2019-04-03T23:04:18.434Z,91.61
2019-04-03T23:06:49.363Z,91.35
2019-04-03T23:09:17.692Z,91.54
2019-04-03T23:11:46.397Z,91.03
2019-04-03T23:14:15.378Z,90.86
2019-04-03T23:16:44.044Z,91.19
2019-04-03T23:19:12.806Z,90.73
2019-04-03T23:21:41.498Z,90.69
2019-04-03T23:24:10.237Z,90.70
2019-04-03T23:26:39.578Z,89.89
2019-04-03T23:29:08.957Z,89.52
2019-04-03T23:31:38.237Z,90.18
2019-04-03T23:34:07.572Z,90.21
2019-04-03T23:36:36.290Z,90.36
2019-04-03T23:39:08.844Z,90.90
2019-04-03T23:41:38.232Z,90.80
2019-04-03T23:44:10.596Z,90.59
2019-04-03T23:46:37.935Z,90.69
2019-04-03T23:49:07.251Z,91.25
2019-04-03T23:51:35.959Z,91.25
2019-04-03T23:54:04.680Z,91.17
2019-04-03T23:56:33.978Z,90.96
2019-04-03T23:59:03.341Z,90.91
